sensor_id;sensor_type;location;lat;lon;timestamp;pressure;altitude;pressure_sealevel;temperature;humidity
2841;BME280;53423;49.224;12.074;2022-12-07T00:01:07;97691.53;;;4.57;71.17
2841;BME280;53423;49.224;12.074;2022-12-07T00:03:36;97699.69;;;4.73;70.08
2841;BME280;53423;49.224;12.074;2022-12-07T00:06:05;97689.00;;;4.66;70.06
2841;BME280;53423;49.224;12.074;2022-12-07T00:08:34;97693.66;;;4.72;69.67
2841;BME280;53423;49.224;12.074;2022-12-07T00:11:04;97690.25;;;4.72;69.91
2841;BME280;53423;49.224;12.074;2022-12-07T00:13:32;97686.25;;;4.68;70.14
2841;BME280;53423;49.224;12.074;2022-12-07T00:16:03;97686.22;;;4.58;70.51
2841;BME280;53423;49.224;12.074;2022-12-07T00:18:32;97683.03;;;4.75;69.71
2841;BME280;53423;49.224;12.074;2022-12-07T00:21:00;97680.75;;;4.61;69.80
2841;BME280;53423;49.224;12.074;2022-12-07T00:23:29;97681.16;;;4.57;69.79
2841;BME280;53423;49.224;12.074;2022-12-07T00:26:03;97687.59;;;4.62;69.74
2841;BME280;53423;49.224;12.074;2022-12-07T00:28:31;97682.03;;;4.67;70.06
2841;BME280;53423;49.224;12.074;2022-12-07T00:31:03;97675.63;;;4.71;69.79
2841;BME280;53423;49.224;12.074;2022-12-07T00:33:31;97681.59;;;4.62;69.59
2841;BME280;53423;49.224;12.074;2022-12-07T00:36:00;97675.41;;;4.53;69.56
2841;BME280;53423;49.224;12.074;2022-12-07T00:38:30;97675.03;;;4.67;69.49
2841;BME280;53423;49.224;12.074;2022-12-07T00:41:00;97678.56;;;4.57;68.49
2841;BME280;53423;49.224;12.074;2022-12-07T00:43:29;97678.78;;;4.54;68.25
2841;BME280;53423;49.224;12.074;2022-12-07T00:45:57;97677.34;;;4.61;68.80
2841;BME280;53423;49.224;12.074;2022-12-07T00:48:27;97677.38;;;4.70;67.46
2841;BME280;53423;49.224;12.074;2022-12-07T00:50:55;97669.81;;;4.58;68.53
2841;BME280;53423;49.224;12.074;2022-12-07T00:53:23;97674.16;;;4.57;67.78
2841;BME280;53423;49.224;12.074;2022-12-07T00:55:51;97668.19;;;4.57;68.46
2841;BME280;53423;49.224;12.074;2022-12-07T00:58:19;97677.28;;;4.51;68.91
2841;BME280;53423;49.224;12.074;2022-12-07T01:00:47;97676.06;;;4.55;68.84
2841;BME280;53423;49.224;12.074;2022-12-07T01:03:16;97682.47;;;4.72;67.52
2841;BME280;53423;49.224;12.074;2022-12-07T01:05:53;97673.91;;;4.60;67.60
2841;BME280;53423;49.224;12.074;2022-12-07T01:08:21;97674.16;;;4.57;67.83
2841;BME280;53423;49.224;12.074;2022-12-07T01:10:57;97669.84;;;4.67;67.15
2841;BME280;53423;49.224;12.074;2022-12-07T01:13:25;97668.78;;;4.70;66.88
2841;BME280;53423;49.224;12.074;2022-12-07T01:15:57;97671.56;;;4.78;66.11
2841;BME280;53423;49.224;12.074;2022-12-07T01:18:26;97668.22;;;4.66;67.27
2841;BME280;53423;49.224;12.074;2022-12-07T01:21:00;97674.41;;;4.75;67.02
2841;BME280;53423;49.224;12.074;2022-12-07T01:23:29;97672.66;;;4.75;66.97
2841;BME280;53423;49.224;12.074;2022-12-07T01:25:58;97674.41;;;4.75;66.33
2841;BME280;53423;49.224;12.074;2022-12-07T01:28:28;97677.16;;;4.73;67.33
2841;BME280;53423;49.224;12.074;2022-12-07T01:30:57;97672.25;;;4.80;66.77
2841;BME280;53423;49.224;12.074;2022-12-07T01:33:27;97680.06;;;4.80;66.13
2841;BME280;53423;49.224;12.074;2022-12-07T01:36:01;97673.59;;;4.74;67.25
2841;BME280;53423;49.224;12.074;2022-12-07T01:38:30;97678.59;;;4.66;67.35
2841;BME280;53423;49.224;12.074;2022-12-07T01:40:59;97676.44;;;4.71;67.20
2841;BME280;53423;49.224;12.074;2022-12-07T01:43:29;97674.56;;;4.73;67.27
2841;BME280;53423;49.224;12.074;2022-12-07T01:45:57;97677.16;;;4.73;66.60
2841;BME280;53423;49.224;12.074;2022-12-07T01:48:29;97669.84;;;4.67;66.21
2841;BME280;53423;49.224;12.074;2022-12-07T01:51:02;97667.38;;;4.66;66.86
2841;BME280;53423;49.224;12.074;2022-12-07T01:53:34;97665.75;;;4.65;67.58
2841;BME280;53423;49.224;12.074;2022-12-07T01:56:05;97674.25;;;4.67;67.30
2841;BME280;53423;49.224;12.074;2022-12-07T01:58:35;97662.06;;;4.67;66.56
2841;BME280;53423;49.224;12.074;2022-12-07T02:01:04;97666.84;;;4.42;67.58
2841;BME280;53423;49.224;12.074;2022-12-07T02:03:36;97666.06;;;4.51;67.44
2841;BME280;53423;49.224;12.074;2022-12-07T02:06:08;97663.03;;;4.46;67.81
2841;BME280;53423;49.224;12.074;2022-12-07T02:08:37;97666.66;;;4.54;67.01
2841;BME280;53423;49.224;12.074;2022-12-07T02:11:05;97666.31;;;4.27;68.02
2841;BME280;53423;49.224;12.074;2022-12-07T02:13:37;97672.66;;;4.34;67.92
2841;BME280;53423;49.224;12.074;2022-12-07T02:16:13;97671.03;;;4.33;67.89
2841;BME280;53423;49.224;12.074;2022-12-07T02:18:56;97665.63;;;4.46;67.24
2841;BME280;53423;49.224;12.074;2022-12-07T02:21:36;97675.81;;;4.38;66.74
2841;BME280;53423;49.224;12.074;2022-12-07T02:24:19;97668.09;;;4.47;66.30
2841;BME280;53423;49.224;12.074;2022-12-07T02:27:25;97672.47;;;4.47;66.43
2841;BME280;53423;49.224;12.074;2022-12-07T02:30:00;97672.22;;;4.50;66.98
2841;BME280;53423;49.224;12.074;2022-12-07T02:32:40;97679.50;;;4.56;66.17
2841;BME280;53423;49.224;12.074;2022-12-07T02:35:11;97675.97;;;4.57;66.93
2841;BME280;53423;49.224;12.074;2022-12-07T02:37:43;97673.59;;;4.54;66.96
2841;BME280;53423;49.224;12.074;2022-12-07T02:40:18;97673.47;;;4.55;66.53
2841;BME280;53423;49.224;12.074;2022-12-07T02:42:50;97664.63;;;4.58;66.15
2841;BME280;53423;49.224;12.074;2022-12-07T02:45:24;97667.34;;;4.56;66.49
2841;BME280;53423;49.224;12.074;2022-12-07T02:47:56;97656.56;;;4.61;67.02
2841;BME280;53423;49.224;12.074;2022-12-07T02:50:27;97667.78;;;4.61;66.70
2841;BME280;53423;49.224;12.074;2022-12-07T02:52:55;97663.88;;;4.67;67.18
2841;BME280;53423;49.224;12.074;2022-12-07T02:55:27;97661.72;;;4.72;66.96
2841;BME280;53423;49.224;12.074;2022-12-07T02:58:07;97656.06;;;4.67;65.92
2841;BME280;53423;49.224;12.074;2022-12-07T03:00:50;97653.34;;;4.68;66.49
2841;BME280;53423;49.224;12.074;2022-12-07T03:03:20;97656.44;;;4.62;65.91
2841;BME280;53423;49.224;12.074;2022-12-07T03:05:59;97652.34;;;4.60;67.38
2841;BME280;53423;49.224;12.074;2022-12-07T03:08:37;97664.03;;;4.54;67.58
2841;BME280;53423;49.224;12.074;2022-12-07T03:11:08;97663.47;;;4.51;67.55
2841;BME280;53423;49.224;12.074;2022-12-07T03:13:40;97655.66;;;4.41;67.53
2841;BME280;53423;49.224;12.074;2022-12-07T03:16:14;97648.69;;;4.42;67.88
2841;BME280;53423;49.224;12.074;2022-12-07T03:18:47;97657.16;;;4.44;67.91
2841;BME280;53423;49.224;12.074;2022-12-07T03:21:19;97657.16;;;4.44;67.47
2841;BME280;53423;49.224;12.074;2022-12-07T03:23:54;97655.47;;;4.33;68.38
2841;BME280;53423;49.224;12.074;2022-12-07T03:26:30;97656.25;;;4.54;67.40
2841;BME280;53423;49.224;12.074;2022-12-07T03:29:02;97657.22;;;4.53;66.97
2841;BME280;53423;49.224;12.074;2022-12-07T03:31:37;97657.66;;;4.58;67.92
2841;BME280;53423;49.224;12.074;2022-12-07T03:34:11;97656.88;;;4.67;66.55
2841;BME280;53423;49.224;12.074;2022-12-07T03:36:46;97656.06;;;4.67;66.69
2841;BME280;53423;49.224;12.074;2022-12-07T03:39:21;97657.59;;;4.49;67.11
2841;BME280;53423;49.224;12.074;2022-12-07T03:41:51;97652.59;;;4.57;67.62
2841;BME280;53423;49.224;12.074;2022-12-07T03:44:20;97652.28;;;4.50;67.68
2841;BME280;53423;49.224;12.074;2022-12-07T03:47:01;97652.22;;;4.61;66.94
2841;BME280;53423;49.224;12.074;2022-12-07T03:49:36;97649.56;;;4.52;67.37
2841;BME280;53423;49.224;12.074;2022-12-07T03:52:12;97647.06;;;4.50;67.65
2841;BME280;53423;49.224;12.074;2022-12-07T03:54:48;97642.47;;;4.54;66.64
2841;BME280;53423;49.224;12.074;2022-12-07T03:57:19;97645.75;;;4.56;66.84
2841;BME280;53423;49.224;12.074;2022-12-07T03:59:49;97642.31;;;4.55;66.67
2841;BME280;53423;49.224;12.074;2022-12-07T04:02:19;97644.69;;;4.58;66.84
2841;BME280;53423;49.224;12.074;2022-12-07T04:04:47;97647.78;;;4.52;66.66
2841;BME280;53423;49.224;12.074;2022-12-07T04:07:15;97650.94;;;4.56;67.06
2841;BME280;53423;49.224;12.074;2022-12-07T04:09:44;97643.84;;;4.58;66.02
2841;BME280;53423;49.224;12.074;2022-12-07T04:12:12;97641.53;;;4.55;67.25
2841;BME280;53423;49.224;12.074;2022-12-07T04:14:39;97643.72;;;4.59;66.71
2841;BME280;53423;49.224;12.074;2022-12-07T04:17:08;97645.25;;;4.41;67.80
2841;BME280;53423;49.224;12.074;2022-12-07T04:19:37;97645.88;;;4.54;66.57
2841;BME280;53423;49.224;12.074;2022-12-07T04:22:07;97634.38;;;4.47;67.21
2841;BME280;53423;49.224;12.074;2022-12-07T04:24:35;97632.47;;;4.49;67.21
2841;BME280;53423;49.224;12.074;2022-12-07T04:27:03;97638.34;;;4.51;66.75
2841;BME280;53423;49.224;12.074;2022-12-07T04:29:31;97634.09;;;4.50;67.28
2841;BME280;53423;49.224;12.074;2022-12-07T04:31:59;97633.03;;;4.53;66.56
2841;BME280;53423;49.224;12.074;2022-12-07T04:34:27;97627.97;;;4.51;66.03
2841;BME280;53423;49.224;12.074;2022-12-07T04:36:56;97624.69;;;4.49;66.28
2841;BME280;53423;49.224;12.074;2022-12-07T04:39:26;97631.16;;;4.55;66.22
2841;BME280;53423;49.224;12.074;2022-12-07T04:41:55;97620.94;;;4.42;65.95
2841;BME280;53423;49.224;12.074;2022-12-07T04:44:24;97608.25;;;4.39;66.50
2841;BME280;53423;49.224;12.074;2022-12-07T04:46:54;97606.84;;;4.35;66.20
2841;BME280;53423;49.224;12.074;2022-12-07T04:49:22;97609.91;;;4.20;66.08
2841;BME280;53423;49.224;12.074;2022-12-07T04:51:51;97608.50;;;4.16;66.05
2841;BME280;53423;49.224;12.074;2022-12-07T04:54:20;97602.69;;;4.03;66.88
2841;BME280;53423;49.224;12.074;2022-12-07T04:56:48;97597.22;;;3.85;66.92
2841;BME280;53423;49.224;12.074;2022-12-07T04:59:17;97588.38;;;3.88;66.86
2841;BME280;53423;49.224;12.074;2022-12-07T05:01:45;97590.88;;;3.78;67.76
2841;BME280;53423;49.224;12.074;2022-12-07T05:04:13;97590.09;;;3.77;66.69
2841;BME280;53423;49.224;12.074;2022-12-07T05:06:42;97587.06;;;3.72;66.85
2841;BME280;53423;49.224;12.074;2022-12-07T05:09:11;97592.91;;;3.43;67.58
2841;BME280;53423;49.224;12.074;2022-12-07T05:11:41;97588.69;;;3.42;67.87
2841;BME280;53423;49.224;12.074;2022-12-07T05:14:12;97596.25;;;3.34;68.78
2841;BME280;53423;49.224;12.074;2022-12-07T05:16:41;97589.53;;;3.42;67.82
2841;BME280;53423;49.224;12.074;2022-12-07T05:19:10;97592.97;;;3.32;68.11
2841;BME280;53423;49.224;12.074;2022-12-07T05:21:39;97595.81;;;3.18;68.30
2841;BME280;53423;49.224;12.074;2022-12-07T05:24:09;97593.66;;;3.23;68.18
2841;BME280;53423;49.224;12.074;2022-12-07T05:26:38;97592.28;;;3.19;67.83
2841;BME280;53423;49.224;12.074;2022-12-07T05:29:07;97597.81;;;3.25;68.45
2841;BME280;53423;49.224;12.074;2022-12-07T05:31:38;97600.41;;;3.14;69.15
2841;BME280;53423;49.224;12.074;2022-12-07T05:34:06;97600.66;;;3.11;69.07
2841;BME280;53423;49.224;12.074;2022-12-07T05:36:34;97603.56;;;3.29;68.81
2841;BME280;53423;49.224;12.074;2022-12-07T05:39:03;97608.41;;;3.22;68.24
2841;BME280;53423;49.224;12.074;2022-12-07T05:41:31;97609.16;;;3.02;68.52
2841;BME280;53423;49.224;12.074;2022-12-07T05:44:18;97613.97;;;3.07;69.05
2841;BME280;53423;49.224;12.074;2022-12-07T05:46:46;97620.66;;;2.98;68.56
2841;BME280;53423;49.224;12.074;2022-12-07T05:49:13;97613.94;;;3.18;69.02
2841;BME280;53423;49.224;12.074;2022-12-07T05:51:41;97621.09;;;3.14;69.67
2841;BME280;53423;49.224;12.074;2022-12-07T05:54:09;97633.84;;;3.06;69.04
2841;BME280;53423;49.224;12.074;2022-12-07T05:56:37;97636.56;;;2.94;69.81
2841;BME280;53423;49.224;12.074;2022-12-07T05:59:05;97635.50;;;2.96;70.61
2841;BME280;53423;49.224;12.074;2022-12-07T06:01:53;97637.84;;;2.88;69.90
2841;BME280;53423;49.224;12.074;2022-12-07T06:04:23;97646.56;;;2.87;69.45
2841;BME280;53423;49.224;12.074;2022-12-07T06:06:52;97638.66;;;2.78;70.23
2841;BME280;53423;49.224;12.074;2022-12-07T06:09:21;97633.50;;;2.78;70.18
2841;BME280;53423;49.224;12.074;2022-12-07T06:11:49;97646.19;;;2.81;70.44
2841;BME280;53423;49.224;12.074;2022-12-07T06:14:35;97639.84;;;2.96;70.39
2841;BME280;53423;49.224;12.074;2022-12-07T06:17:04;97635.84;;;3.14;70.02
2841;BME280;53423;49.224;12.074;2022-12-07T06:19:33;97639.00;;;3.06;70.55
2841;BME280;53423;49.224;12.074;2022-12-07T06:22:02;97640.66;;;3.18;69.20
2841;BME280;53423;49.224;12.074;2022-12-07T06:24:31;97635.00;;;3.13;70.14
2841;BME280;53423;49.224;12.074;2022-12-07T06:26:59;97632.66;;;3.10;70.50
2841;BME280;53423;49.224;12.074;2022-12-07T06:29:27;97632.41;;;3.13;70.13
2841;BME280;53423;49.224;12.074;2022-12-07T06:31:55;97621.56;;;3.30;69.38
2841;BME280;53423;49.224;12.074;2022-12-07T06:34:25;97635.09;;;3.34;69.43
2841;BME280;53423;49.224;12.074;2022-12-07T06:36:54;97629.75;;;3.46;69.08
2841;BME280;53423;49.224;12.074;2022-12-07T06:39:23;97632.97;;;3.39;69.26
2841;BME280;53423;49.224;12.074;2022-12-07T06:41:52;97636.34;;;3.50;69.47
2841;BME280;53423;49.224;12.074;2022-12-07T06:44:21;97652.41;;;3.44;69.02
2841;BME280;53423;49.224;12.074;2022-12-07T06:46:50;97651.31;;;3.47;69.36
2841;BME280;53423;49.224;12.074;2022-12-07T06:49:39;97646.59;;;3.52;69.50
2841;BME280;53423;49.224;12.074;2022-12-07T06:52:07;97642.75;;;3.35;69.14
2841;BME280;53423;49.224;12.074;2022-12-07T06:54:35;97650.88;;;3.31;69.35
2841;BME280;53423;49.224;12.074;2022-12-07T06:57:03;97646.53;;;3.20;69.89
2841;BME280;53423;49.224;12.074;2022-12-07T06:59:31;97637.81;;;3.21;69.29
2841;BME280;53423;49.224;12.074;2022-12-07T07:01:59;97638.41;;;3.25;69.83
2841;BME280;53423;49.224;12.074;2022-12-07T07:04:27;97648.66;;;3.15;69.96
2841;BME280;53423;49.224;12.074;2022-12-07T07:06:56;97654.31;;;3.20;70.03
2841;BME280;53423;49.224;12.074;2022-12-07T07:09:26;97646.03;;;3.37;69.37
2841;BME280;53423;49.224;12.074;2022-12-07T07:11:54;97660.03;;;3.35;69.81
2841;BME280;53423;49.224;12.074;2022-12-07T07:14:22;97650.03;;;3.41;69.02
2841;BME280;53423;49.224;12.074;2022-12-07T07:16:50;97646.84;;;3.49;69.71
2841;BME280;53423;49.224;12.074;2022-12-07T07:19:18;97647.94;;;3.35;69.45
2841;BME280;53423;49.224;12.074;2022-12-07T07:21:46;97645.09;;;3.38;69.79
2841;BME280;53423;49.224;12.074;2022-12-07T07:24:15;97655.91;;;3.54;69.07
2841;BME280;53423;49.224;12.074;2022-12-07T07:26:43;97656.81;;;3.64;68.03
2841;BME280;53423;49.224;12.074;2022-12-07T07:29:11;97655.69;;;3.78;67.53
2841;BME280;53423;49.224;12.074;2022-12-07T07:31:39;97663.38;;;3.68;67.94
2841;BME280;53423;49.224;12.074;2022-12-07T07:34:07;97654.59;;;3.49;68.82
2841;BME280;53423;49.224;12.074;2022-12-07T07:36:35;97661.69;;;3.47;68.78
2841;BME280;53423;49.224;12.074;2022-12-07T07:39:03;97662.38;;;3.49;68.31
2841;BME280;53423;49.224;12.074;2022-12-07T07:41:32;97659.78;;;3.49;69.34
2841;BME280;53423;49.224;12.074;2022-12-07T07:44:00;97657.28;;;3.58;68.88
2841;BME280;53423;49.224;12.074;2022-12-07T07:46:28;97667.47;;;3.82;68.74
2841;BME280;53423;49.224;12.074;2022-12-07T07:48:57;97658.06;;;3.70;68.19
2841;BME280;53423;49.224;12.074;2022-12-07T07:51:25;97665.06;;;3.58;68.69
2841;BME280;53423;49.224;12.074;2022-12-07T07:53:53;97655.94;;;3.75;68.15
2841;BME280;53423;49.224;12.074;2022-12-07T07:56:21;97665.00;;;3.80;68.06
2841;BME280;53423;49.224;12.074;2022-12-07T07:58:52;97658.38;;;3.88;69.71
2841;BME280;53423;49.224;12.074;2022-12-07T08:01:20;97659.34;;;4.07;68.03
2841;BME280;53423;49.224;12.074;2022-12-07T08:03:49;97661.34;;;4.15;68.02
2841;BME280;53423;49.224;12.074;2022-12-07T08:06:17;97662.13;;;4.15;67.53
2841;BME280;53423;49.224;12.074;2022-12-07T08:08:45;97664.94;;;4.23;66.71
2841;BME280;53423;49.224;12.074;2022-12-07T08:11:13;97665.75;;;4.24;66.36
2841;BME280;53423;49.224;12.074;2022-12-07T08:13:41;97665.13;;;4.31;66.13
2841;BME280;53423;49.224;12.074;2022-12-07T08:16:10;97675.88;;;4.27;65.68
2841;BME280;53423;49.224;12.074;2022-12-07T08:18:40;97679.94;;;4.20;66.11
2841;BME280;53423;49.224;12.074;2022-12-07T08:21:10;97673.22;;;4.38;66.21
2841;BME280;53423;49.224;12.074;2022-12-07T08:23:40;97679.69;;;4.43;65.99
2841;BME280;53423;49.224;12.074;2022-12-07T08:26:13;97687.16;;;4.37;65.64
2841;BME280;53423;49.224;12.074;2022-12-07T08:28:42;97688.53;;;4.41;65.94
2841;BME280;53423;49.224;12.074;2022-12-07T08:31:15;97685.25;;;4.59;65.51
2841;BME280;53423;49.224;12.074;2022-12-07T08:33:45;97680.38;;;4.45;65.69
2841;BME280;53423;49.224;12.074;2022-12-07T08:36:13;97683.91;;;4.44;66.25
2841;BME280;53423;49.224;12.074;2022-12-07T08:38:42;97685.81;;;4.42;66.51
2841;BME280;53423;49.224;12.074;2022-12-07T08:41:30;97694.22;;;4.55;65.36
2841;BME280;53423;49.224;12.074;2022-12-07T08:43:58;97678.47;;;4.47;66.36
2841;BME280;53423;49.224;12.074;2022-12-07T08:46:31;97678.00;;;4.53;65.85
2841;BME280;53423;49.224;12.074;2022-12-07T08:49:03;97679.88;;;4.51;65.88
2841;BME280;53423;49.224;12.074;2022-12-07T08:51:32;97682.03;;;4.46;64.89
2841;BME280;53423;49.224;12.074;2022-12-07T08:54:01;97684.25;;;4.51;66.58
2841;BME280;53423;49.224;12.074;2022-12-07T08:56:31;97682.03;;;4.46;65.82
2841;BME280;53423;49.224;12.074;2022-12-07T08:59:00;97685.69;;;4.64;65.91
2841;BME280;53423;49.224;12.074;2022-12-07T09:01:29;97687.19;;;4.87;65.19
2841;BME280;53423;49.224;12.074;2022-12-07T09:03:57;97688.00;;;4.88;63.73
2841;BME280;53423;49.224;12.074;2022-12-07T09:06:26;97690.50;;;4.99;63.77
2841;BME280;53423;49.224;12.074;2022-12-07T09:08:57;97686.94;;;4.90;64.18
2841;BME280;53423;49.224;12.074;2022-12-07T09:11:26;97681.09;;;4.98;62.80
2841;BME280;53423;49.224;12.074;2022-12-07T09:13:55;97677.59;;;5.08;63.16
2841;BME280;53423;49.224;12.074;2022-12-07T09:16:23;97683.50;;;5.20;63.01
2841;BME280;53423;49.224;12.074;2022-12-07T09:18:52;97682.75;;;5.39;61.70
2841;BME280;53423;49.224;12.074;2022-12-07T09:21:20;97689.84;;;5.37;61.78
2841;BME280;53423;49.224;12.074;2022-12-07T09:23:48;97685.66;;;5.55;61.54
2841;BME280;53423;49.224;12.074;2022-12-07T09:26:16;97676.66;;;5.59;61.34
2841;BME280;53423;49.224;12.074;2022-12-07T09:28:44;97671.88;;;5.64;61.19
2841;BME280;53423;49.224;12.074;2022-12-07T09:31:12;97675.72;;;5.69;61.79
2841;BME280;53423;49.224;12.074;2022-12-07T09:33:54;97674.09;;;5.78;60.61
2841;BME280;53423;49.224;12.074;2022-12-07T09:36:22;97664.91;;;5.64;61.39
2841;BME280;53423;49.224;12.074;2022-12-07T09:38:50;97671.06;;;5.73;60.29
2841;BME280;53423;49.224;12.074;2022-12-07T09:41:19;97669.41;;;5.81;61.50
2841;BME280;53423;49.224;12.074;2022-12-07T09:43:48;97660.84;;;6.00;60.59
2841;BME280;53423;49.224;12.074;2022-12-07T09:46:18;97666.28;;;5.78;60.30
2841;BME280;53423;49.224;12.074;2022-12-07T09:48:47;97673.69;;;5.73;60.44
2841;BME280;53423;49.224;12.074;2022-12-07T09:51:20;97666.81;;;5.81;61.34
2841;BME280;53423;49.224;12.074;2022-12-07T09:53:52;97671.41;;;5.89;60.73
2841;BME280;53423;49.224;12.074;2022-12-07T09:56:20;97672.16;;;5.70;60.61
2841;BME280;53423;49.224;12.074;2022-12-07T09:58:50;97672.16;;;5.61;61.10
2841;BME280;53423;49.224;12.074;2022-12-07T10:01:20;97667.50;;;5.74;61.60
2841;BME280;53423;49.224;12.074;2022-12-07T10:03:50;97666.25;;;5.68;61.42
2841;BME280;53423;49.224;12.074;2022-12-07T10:06:20;97658.22;;;5.81;61.25
2841;BME280;53423;49.224;12.074;2022-12-07T10:08:48;97654.69;;;5.91;60.95
2841;BME280;53423;49.224;12.074;2022-12-07T10:11:19;97656.63;;;5.99;61.31
2841;BME280;53423;49.224;12.074;2022-12-07T10:13:48;97661.81;;;6.08;60.13
2841;BME280;53423;49.224;12.074;2022-12-07T10:16:41;97647.19;;;5.98;59.32
2841;BME280;53423;49.224;12.074;2022-12-07T10:19:23;97653.59;;;5.94;60.40
2841;BME280;53423;49.224;12.074;2022-12-07T10:22:05;97645.66;;;6.05;59.44
2841;BME280;53423;49.224;12.074;2022-12-07T10:24:33;97642.22;;;5.95;59.72
2841;BME280;53423;49.224;12.074;2022-12-07T10:27:01;97634.84;;;5.90;59.25
2841;BME280;53423;49.224;12.074;2022-12-07T10:29:31;97631.41;;;5.90;60.01
2841;BME280;53423;49.224;12.074;2022-12-07T10:32:01;97632.66;;;5.95;60.12
2841;BME280;53423;49.224;12.074;2022-12-07T10:34:31;97631.28;;;6.01;59.32
2841;BME280;53423;49.224;12.074;2022-12-07T10:37:16;97630.59;;;6.08;58.91
2841;BME280;53423;49.224;12.074;2022-12-07T10:39:46;97627.72;;;6.02;59.66
2841;BME280;53423;49.224;12.074;2022-12-07T10:42:18;97621.72;;;6.01;59.30
2841;BME280;53423;49.224;12.074;2022-12-07T10:44:47;97620.06;;;5.91;59.69
2841;BME280;53423;49.224;12.074;2022-12-07T10:47:33;97612.94;;;5.93;59.59
2841;BME280;53423;49.224;12.074;2022-12-07T10:50:14;97612.78;;;6.13;58.76
2841;BME280;53423;49.224;12.074;2022-12-07T10:53:02;97606.78;;;6.13;59.26
2841;BME280;53423;49.224;12.074;2022-12-07T10:55:44;97606.09;;;5.82;60.52
2841;BME280;53423;49.224;12.074;2022-12-07T10:58:27;97606.78;;;5.94;59.77
2841;BME280;53423;49.224;12.074;2022-12-07T11:01:04;97600.22;;;5.99;59.94
2841;BME280;53423;49.224;12.074;2022-12-07T11:03:53;97596.91;;;6.16;58.93
2841;BME280;53423;49.224;12.074;2022-12-07T11:06:29;97605.94;;;5.93;59.62
2841;BME280;53423;49.224;12.074;2022-12-07T11:09:16;97599.09;;;6.02;59.68
2841;BME280;53423;49.224;12.074;2022-12-07T11:12:17;97598.00;;;6.14;59.79
2841;BME280;53423;49.224;12.074;2022-12-07T11:14:54;97594.16;;;6.08;59.94
2841;BME280;53423;49.224;12.074;2022-12-07T11:17:30;97602.38;;;6.13;59.78
2841;BME280;53423;49.224;12.074;2022-12-07T11:20:06;97591.00;;;6.05;59.56
2841;BME280;53423;49.224;12.074;2022-12-07T11:22:45;97590.75;;;6.08;59.96
2841;BME280;53423;49.224;12.074;2022-12-07T11:25:28;97587.84;;;6.20;59.63
2841;BME280;53423;49.224;12.074;2022-12-07T11:28:17;97593.19;;;6.19;60.04
2841;BME280;53423;49.224;12.074;2022-12-07T11:30:52;97598.16;;;5.93;61.14
2841;BME280;53423;49.224;12.074;2022-12-07T11:33:29;97602.53;;;6.02;61.48
2841;BME280;53423;49.224;12.074;2022-12-07T11:36:06;97595.69;;;6.01;62.12
2841;BME280;53423;49.224;12.074;2022-12-07T11:38:42;97586.50;;;6.07;62.30
2841;BME280;53423;49.224;12.074;2022-12-07T11:41:12;97588.97;;;5.99;62.23
2841;BME280;53423;49.224;12.074;2022-12-07T11:43:51;97587.34;;;6.07;63.02
2841;BME280;53423;49.224;12.074;2022-12-07T11:46:24;97583.91;;;6.16;62.60
2841;BME280;53423;49.224;12.074;2022-12-07T11:48:58;97581.72;;;6.21;62.33
2841;BME280;53423;49.224;12.074;2022-12-07T11:51:33;97575.75;;;6.39;62.03
2841;BME280;53423;49.224;12.074;2022-12-07T11:54:04;97576.88;;;6.36;61.44
2841;BME280;53423;49.224;12.074;2022-12-07T11:56:38;97577.00;;;6.25;61.51
2841;BME280;53423;49.224;12.074;2022-12-07T11:59:11;97570.97;;;6.34;62.08
2841;BME280;53423;49.224;12.074;2022-12-07T12:01:51;97573.88;;;6.31;60.96
2841;BME280;53423;49.224;12.074;2022-12-07T12:04:30;97574.41;;;6.25;61.81
2841;BME280;53423;49.224;12.074;2022-12-07T12:07:00;97562.19;;;6.35;61.40
2841;BME280;53423;49.224;12.074;2022-12-07T12:09:52;97560.44;;;6.36;61.77
2841;BME280;53423;49.224;12.074;2022-12-07T12:12:42;97557.81;;;6.36;61.58
2841;BME280;53423;49.224;12.074;2022-12-07T12:15:44;97548.09;;;6.38;62.22
2841;BME280;53423;49.224;12.074;2022-12-07T12:18:38;97557.38;;;6.40;62.91
2841;BME280;53423;49.224;12.074;2022-12-07T12:21:10;97554.78;;;6.50;61.79
2841;BME280;53423;49.224;12.074;2022-12-07T12:23:46;97548.84;;;6.57;62.22
2841;BME280;53423;49.224;12.074;2022-12-07T12:26:18;97555.16;;;6.55;62.74
2841;BME280;53423;49.224;12.074;2022-12-07T12:28:54;97562.94;;;6.64;62.70
2841;BME280;53423;49.224;12.074;2022-12-07T12:31:34;97546.69;;;6.53;61.57
2841;BME280;53423;49.224;12.074;2022-12-07T12:34:05;97545.19;;;6.50;61.93
2841;BME280;53423;49.224;12.074;2022-12-07T12:36:52;97535.31;;;6.44;62.69
2841;BME280;53423;49.224;12.074;2022-12-07T12:39:20;97540.88;;;6.59;61.64
2841;BME280;53423;49.224;12.074;2022-12-07T12:41:57;97542.31;;;6.53;61.54
2841;BME280;53423;49.224;12.074;2022-12-07T12:48:09;97545.06;;;6.42;62.28
2841;BME280;53423;49.224;12.074;2022-12-07T12:53:52;97548.09;;;6.38;62.87
2841;BME280;53423;49.224;12.074;2022-12-07T12:56:39;97546.88;;;6.32;62.78
2841;BME280;53423;49.224;12.074;2022-12-07T12:59:25;97541.38;;;6.45;62.52
2841;BME280;53423;49.224;12.074;2022-12-07T13:01:56;97547.13;;;6.39;63.56
2841;BME280;53423;49.224;12.074;2022-12-07T13:04:38;97538.47;;;6.48;62.79
2841;BME280;53423;49.224;12.074;2022-12-07T13:07:47;97540.50;;;6.54;62.94
2841;BME280;53423;49.224;12.074;2022-12-07T13:13:33;97522.81;;;6.57;61.94
2841;BME280;53423;49.224;12.074;2022-12-07T13:16:38;97525.75;;;6.45;62.02
2841;BME280;53423;49.224;12.074;2022-12-07T13:22:40;97533.84;;;6.32;62.96
2841;BME280;53423;49.224;12.074;2022-12-07T13:25:11;97521.25;;;6.37;63.44
2841;BME280;53423;49.224;12.074;2022-12-07T13:27:50;97528.75;;;6.50;62.80
2841;BME280;53423;49.224;12.074;2022-12-07T13:30:20;97522.16;;;6.46;62.92
2841;BME280;53423;49.224;12.074;2022-12-07T13:32:52;97528.50;;;6.33;63.03
2841;BME280;53423;49.224;12.074;2022-12-07T13:35:34;97520.03;;;6.32;62.46
2841;BME280;53423;49.224;12.074;2022-12-07T13:38:14;97529.78;;;6.29;63.33
2841;BME280;53423;49.224;12.074;2022-12-07T13:41:00;97529.28;;;6.44;62.71
2841;BME280;53423;49.224;12.074;2022-12-07T13:43:28;97528.38;;;6.35;63.17
2841;BME280;53423;49.224;12.074;2022-12-07T13:45:57;97522.75;;;6.40;63.19
2841;BME280;53423;49.224;12.074;2022-12-07T13:48:31;97516.03;;;6.37;62.72
2841;BME280;53423;49.224;12.074;2022-12-07T13:51:02;97524.28;;;6.32;62.65